sensor_id;sensor_type;location;lat;lon;timestamp;temperature;humidity
8872;DHT22;4472;52.092;9.820;2022-07-23T00:01:54;16.50;99.90
8872;DHT22;4472;52.092;9.820;2022-07-23T00:04:41;16.60;99.90
8872;DHT22;4472;52.092;9.820;2022-07-23T00:07:30;16.40;99.90
8872;DHT22;4472;52.092;9.820;2022-07-23T00:10:17;16.40;99.90
8872;DHT22;4472;52.092;9.820;2022-07-23T00:13:04;16.40;99.90
8872;DHT22;4472;52.092;9.820;2022-07-23T00:15:52;16.40;99.90
8872;DHT22;4472;52.092;9.820;2022-07-23T00:18:39;16.40;99.90
8872;DHT22;4472;52.092;9.820;2022-07-23T00:21:26;16.40;99.90
8872;DHT22;4472;52.092;9.820;2022-07-23T00:24:15;16.40;99.90
8872;DHT22;4472;52.092;9.820;2022-07-23T00:27:02;16.30;99.90
8872;DHT22;4472;52.092;9.820;2022-07-23T00:29:49;16.10;99.90
8872;DHT22;4472;52.092;9.820;2022-07-23T00:32:45;16.30;99.90
8872;DHT22;4472;52.092;9.820;2022-07-23T00:35:34;16.20;99.90
8872;DHT22;4472;52.092;9.820;2022-07-23T00:38:21;16.20;99.90
8872;DHT22;4472;52.092;9.820;2022-07-23T00:41:10;16.20;99.90
8872;DHT22;4472;52.092;9.820;2022-07-23T00:44:15;16.20;99.90
8872;DHT22;4472;52.092;9.820;2022-07-23T00:47:03;16.10;99.90
8872;DHT22;4472;52.092;9.820;2022-07-23T00:49:51;16.00;99.90
8872;DHT22;4472;52.092;9.820;2022-07-23T00:52:39;16.20;99.90
8872;DHT22;4472;52.092;9.820;2022-07-23T00:55:26;16.10;99.90
8872;DHT22;4472;52.092;9.820;2022-07-23T00:58:16;16.20;99.90
8872;DHT22;4472;52.092;9.820;2022-07-23T01:01:03;16.10;99.90
8872;DHT22;4472;52.092;9.820;2022-07-23T01:03:57;16.10;99.90
8872;DHT22;4472;52.092;9.820;2022-07-23T01:06:44;16.10;99.90
8872;DHT22;4472;52.092;9.820;2022-07-23T01:09:32;16.10;99.90
8872;DHT22;4472;52.092;9.820;2022-07-23T01:12:19;16.10;99.90
8872;DHT22;4472;52.092;9.820;2022-07-23T01:15:09;16.00;99.90
8872;DHT22;4472;52.092;9.820;2022-07-23T01:17:56;15.90;99.90
8872;DHT22;4472;52.092;9.820;2022-07-23T01:20:43;16.00;99.90
8872;DHT22;4472;52.092;9.820;2022-07-23T01:23:32;16.00;99.90
8872;DHT22;4472;52.092;9.820;2022-07-23T01:26:19;15.90;99.90
8872;DHT22;4472;52.092;9.820;2022-07-23T01:29:06;15.70;99.90
8872;DHT22;4472;52.092;9.820;2022-07-23T01:31:53;15.60;99.90
8872;DHT22;4472;52.092;9.820;2022-07-23T01:34:40;15.60;99.90
8872;DHT22;4472;52.092;9.820;2022-07-23T01:37:27;15.60;99.90
8872;DHT22;4472;52.092;9.820;2022-07-23T01:40:16;15.50;99.90
8872;DHT22;4472;52.092;9.820;2022-07-23T01:43:03;15.60;99.90
8872;DHT22;4472;52.092;9.820;2022-07-23T01:45:50;15.60;99.90
8872;DHT22;4472;52.092;9.820;2022-07-23T01:48:37;15.70;99.90
8872;DHT22;4472;52.092;9.820;2022-07-23T01:51:25;15.60;99.90
8872;DHT22;4472;52.092;9.820;2022-07-23T01:54:12;15.50;99.90
8872;DHT22;4472;52.092;9.820;2022-07-23T01:57:01;15.40;99.90
8872;DHT22;4472;52.092;9.820;2022-07-23T01:59:48;15.40;99.90
8872;DHT22;4472;52.092;9.820;2022-07-23T02:02:35;15.40;99.90
8872;DHT22;4472;52.092;9.820;2022-07-23T02:05:23;15.60;99.90
8872;DHT22;4472;52.092;9.820;2022-07-23T02:08:10;15.40;99.90
8872;DHT22;4472;52.092;9.820;2022-07-23T02:10:57;15.40;99.90
8872;DHT22;4472;52.092;9.820;2022-07-23T02:13:45;15.40;99.90
8872;DHT22;4472;52.092;9.820;2022-07-23T02:16:33;15.50;99.90
8872;DHT22;4472;52.092;9.820;2022-07-23T02:19:20;15.60;99.90
8872;DHT22;4472;52.092;9.820;2022-07-23T02:22:07;15.50;99.90
8872;DHT22;4472;52.092;9.820;2022-07-23T02:24:54;15.50;99.90
8872;DHT22;4472;52.092;9.820;2022-07-23T02:27:41;15.60;99.90
8872;DHT22;4472;52.092;9.820;2022-07-23T02:30:30;15.60;99.90
8872;DHT22;4472;52.092;9.820;2022-07-23T02:33:17;15.60;99.90
8872;DHT22;4472;52.092;9.820;2022-07-23T02:36:04;15.60;99.90
8872;DHT22;4472;52.092;9.820;2022-07-23T02:38:52;15.60;99.90
8872;DHT22;4472;52.092;9.820;2022-07-23T02:41:39;15.70;99.90
8872;DHT22;4472;52.092;9.820;2022-07-23T02:44:26;15.70;99.90
8872;DHT22;4472;52.092;9.820;2022-07-23T02:47:14;15.60;99.90
8872;DHT22;4472;52.092;9.820;2022-07-23T02:50:02;15.70;99.90
8872;DHT22;4472;52.092;9.820;2022-07-23T02:52:51;15.60;99.90
8872;DHT22;4472;52.092;9.820;2022-07-23T02:55:38;15.40;99.90
8872;DHT22;4472;52.092;9.820;2022-07-23T02:58:25;15.90;99.90
8872;DHT22;4472;52.092;9.820;2022-07-23T03:01:12;15.70;99.90
8872;DHT22;4472;52.092;9.820;2022-07-23T03:04:01;15.80;99.90
8872;DHT22;4472;52.092;9.820;2022-07-23T03:06:48;15.30;99.90
8872;DHT22;4472;52.092;9.820;2022-07-23T03:09:35;15.70;99.90
8872;DHT22;4472;52.092;9.820;2022-07-23T03:12:22;15.80;99.90
8872;DHT22;4472;52.092;9.820;2022-07-23T03:15:10;15.80;99.90
8872;DHT22;4472;52.092;9.820;2022-07-23T03:17:57;15.80;99.90
8872;DHT22;4472;52.092;9.820;2022-07-23T03:20:46;15.90;99.90
8872;DHT22;4472;52.092;9.820;2022-07-23T03:23:33;15.90;99.90
8872;DHT22;4472;52.092;9.820;2022-07-23T03:26:20;16.10;99.90
8872;DHT22;4472;52.092;9.820;2022-07-23T03:29:11;15.80;99.90
8872;DHT22;4472;52.092;9.820;2022-07-23T03:31:58;15.90;99.90
8872;DHT22;4472;52.092;9.820;2022-07-23T03:34:45;15.90;99.90
8872;DHT22;4472;52.092;9.820;2022-07-23T03:37:34;16.00;99.90
8872;DHT22;4472;52.092;9.820;2022-07-23T03:40:21;16.00;99.90
8872;DHT22;4472;52.092;9.820;2022-07-23T03:43:08;15.90;99.90
8872;DHT22;4472;52.092;9.820;2022-07-23T03:45:56;16.00;99.90
8872;DHT22;4472;52.092;9.820;2022-07-23T03:48:43;16.10;99.90
8872;DHT22;4472;52.092;9.820;2022-07-23T03:51:30;16.00;99.90
8872;DHT22;4472;52.092;9.820;2022-07-23T03:54:19;16.00;99.90
8872;DHT22;4472;52.092;9.820;2022-07-23T03:57:07;16.00;99.90
8872;DHT22;4472;52.092;9.820;2022-07-23T03:59:57;16.10;99.90
8872;DHT22;4472;52.092;9.820;2022-07-23T04:02:44;16.10;99.90
8872;DHT22;4472;52.092;9.820;2022-07-23T04:05:32;16.10;99.90
8872;DHT22;4472;52.092;9.820;2022-07-23T04:08:19;16.10;99.90
8872;DHT22;4472;52.092;9.820;2022-07-23T04:11:08;16.10;99.90
8872;DHT22;4472;52.092;9.820;2022-07-23T04:13:55;16.20;99.90
8872;DHT22;4472;52.092;9.820;2022-07-23T04:16:42;16.20;99.90
8872;DHT22;4472;52.092;9.820;2022-07-23T04:19:29;16.20;99.90
8872;DHT22;4472;52.092;9.820;2022-07-23T04:22:17;16.20;99.90
8872;DHT22;4472;52.092;9.820;2022-07-23T04:25:05;16.20;99.90
8872;DHT22;4472;52.092;9.820;2022-07-23T04:27:53;16.20;99.90
8872;DHT22;4472;52.092;9.820;2022-07-23T04:30:40;16.30;99.90
8872;DHT22;4472;52.092;9.820;2022-07-23T04:33:28;16.30;99.90
8872;DHT22;4472;52.092;9.820;2022-07-23T04:36:15;16.30;99.90
8872;DHT22;4472;52.092;9.820;2022-07-23T04:39:02;16.30;99.90
8872;DHT22;4472;52.092;9.820;2022-07-23T04:41:49;16.30;99.90
8872;DHT22;4472;52.092;9.820;2022-07-23T04:44:38;16.30;99.90
8872;DHT22;4472;52.092;9.820;2022-07-23T04:47:25;16.40;99.90
8872;DHT22;4472;52.092;9.820;2022-07-23T04:50:12;16.30;99.90
8872;DHT22;4472;52.092;9.820;2022-07-23T04:53:03;16.30;99.90
8872;DHT22;4472;52.092;9.820;2022-07-23T04:55:50;16.30;99.90
8872;DHT22;4472;52.092;9.820;2022-07-23T04:58:38;16.30;99.90
8872;DHT22;4472;52.092;9.820;2022-07-23T05:01:26;16.30;99.90
8872;DHT22;4472;52.092;9.820;2022-07-23T05:04:14;16.30;99.90
8872;DHT22;4472;52.092;9.820;2022-07-23T05:07:01;16.30;99.90
8872;DHT22;4472;52.092;9.820;2022-07-23T05:09:48;16.30;99.90
8872;DHT22;4472;52.092;9.820;2022-07-23T05:12:35;16.30;99.90
8872;DHT22;4472;52.092;9.820;2022-07-23T05:15:23;16.30;99.90
8872;DHT22;4472;52.092;9.820;2022-07-23T05:18:11;16.30;99.90
8872;DHT22;4472;52.092;9.820;2022-07-23T05:20:58;16.40;99.90
8872;DHT22;4472;52.092;9.820;2022-07-23T05:23:46;16.30;99.90
8872;DHT22;4472;52.092;9.820;2022-07-23T05:26:33;16.40;99.90
8872;DHT22;4472;52.092;9.820;2022-07-23T05:29:20;16.50;99.90
8872;DHT22;4472;52.092;9.820;2022-07-23T05:32:07;16.60;99.90
8872;DHT22;4472;52.092;9.820;2022-07-23T05:34:56;16.60;99.90
8872;DHT22;4472;52.092;9.820;2022-07-23T05:37:43;16.90;99.90
8872;DHT22;4472;52.092;9.820;2022-07-23T05:40:30;16.80;99.90
8872;DHT22;4472;52.092;9.820;2022-07-23T05:43:18;16.90;99.90
8872;DHT22;4472;52.092;9.820;2022-07-23T05:46:06;17.20;99.90
8872;DHT22;4472;52.092;9.820;2022-07-23T05:48:53;17.00;99.90
8872;DHT22;4472;52.092;9.820;2022-07-23T05:51:41;16.90;99.90
8872;DHT22;4472;52.092;9.820;2022-07-23T05:54:28;16.90;99.90
8872;DHT22;4472;52.092;9.820;2022-07-23T05:57:16;17.00;99.90
8872;DHT22;4472;52.092;9.820;2022-07-23T06:00:05;17.00;99.90
8872;DHT22;4472;52.092;9.820;2022-07-23T06:02:53;17.10;99.90
8872;DHT22;4472;52.092;9.820;2022-07-23T06:05:40;17.00;99.90
8872;DHT22;4472;52.092;9.820;2022-07-23T06:08:28;17.10;99.90
8872;DHT22;4472;52.092;9.820;2022-07-23T06:11:16;17.20;99.90
8872;DHT22;4472;52.092;9.820;2022-07-23T06:14:03;17.30;99.90
8872;DHT22;4472;52.092;9.820;2022-07-23T06:16:50;17.40;99.90
8872;DHT22;4472;52.092;9.820;2022-07-23T06:19:38;17.60;99.90
8872;DHT22;4472;52.092;9.820;2022-07-23T06:22:25;17.70;99.90
8872;DHT22;4472;52.092;9.820;2022-07-23T06:25:13;17.90;99.90
8872;DHT22;4472;52.092;9.820;2022-07-23T06:28:02;18.00;99.90
8872;DHT22;4472;52.092;9.820;2022-07-23T06:30:49;18.20;99.90
8872;DHT22;4472;52.092;9.820;2022-07-23T06:33:36;18.20;99.90
8872;DHT22;4472;52.092;9.820;2022-07-23T06:36:23;18.30;99.90
8872;DHT22;4472;52.092;9.820;2022-07-23T06:39:11;18.30;99.90
8872;DHT22;4472;52.092;9.820;2022-07-23T06:41:59;18.40;99.90
8872;DHT22;4472;52.092;9.820;2022-07-23T06:44:46;18.60;99.90
8872;DHT22;4472;52.092;9.820;2022-07-23T06:47:34;18.70;99.90
8872;DHT22;4472;52.092;9.820;2022-07-23T06:50:21;18.70;99.90
8872;DHT22;4472;52.092;9.820;2022-07-23T06:53:08;18.70;99.90
8872;DHT22;4472;52.092;9.820;2022-07-23T06:55:55;18.70;99.90
8872;DHT22;4472;52.092;9.820;2022-07-23T06:58:43;18.70;99.90
8872;DHT22;4472;52.092;9.820;2022-07-23T07:01:31;18.80;99.90
8872;DHT22;4472;52.092;9.820;2022-07-23T07:04:18;18.80;99.90
8872;DHT22;4472;52.092;9.820;2022-07-23T07:07:05;18.90;99.90
8872;DHT22;4472;52.092;9.820;2022-07-23T07:09:52;19.00;99.90
8872;DHT22;4472;52.092;9.820;2022-07-23T07:12:39;18.90;99.90
8872;DHT22;4472;52.092;9.820;2022-07-23T07:15:28;19.00;99.90
8872;DHT22;4472;52.092;9.820;2022-07-23T07:18:15;18.90;99.90
8872;DHT22;4472;52.092;9.820;2022-07-23T07:21:03;19.00;99.90
8872;DHT22;4472;52.092;9.820;2022-07-23T07:23:50;19.10;99.90
8872;DHT22;4472;52.092;9.820;2022-07-23T07:26:37;19.30;99.90
8872;DHT22;4472;52.092;9.820;2022-07-23T07:29:25;19.40;99.90
8872;DHT22;4472;52.092;9.820;2022-07-23T07:32:14;19.50;99.90
8872;DHT22;4472;52.092;9.820;2022-07-23T07:35:01;19.70;99.90
8872;DHT22;4472;52.092;9.820;2022-07-23T07:37:48;19.80;99.90
8872;DHT22;4472;52.092;9.820;2022-07-23T07:40:35;19.90;99.90
8872;DHT22;4472;52.092;9.820;2022-07-23T07:43:23;20.30;99.90
8872;DHT22;4472;52.092;9.820;2022-07-23T07:46:10;20.60;99.90
8872;DHT22;4472;52.092;9.820;2022-07-23T07:48:58;20.80;99.00
8872;DHT22;4472;52.092;9.820;2022-07-23T07:51:46;20.70;99.50
8872;DHT22;4472;52.092;9.820;2022-07-23T07:54:33;20.60;99.60
8872;DHT22;4472;52.092;9.820;2022-07-23T07:57:20;20.60;99.90
8872;DHT22;4472;52.092;9.820;2022-07-23T08:00:09;20.60;99.40
8872;DHT22;4472;52.092;9.820;2022-07-23T08:02:56;20.50;99.70
8872;DHT22;4472;52.092;9.820;2022-07-23T08:05:45;20.60;99.90
8872;DHT22;4472;52.092;9.820;2022-07-23T08:08:32;20.70;99.80
8872;DHT22;4472;52.092;9.820;2022-07-23T08:11:19;20.70;99.10
8872;DHT22;4472;52.092;9.820;2022-07-23T08:14:06;20.70;98.10
8872;DHT22;4472;52.092;9.820;2022-07-23T08:16:55;20.50;98.20
8872;DHT22;4472;52.092;9.820;2022-07-23T08:19:43;20.40;98.80
8872;DHT22;4472;52.092;9.820;2022-07-23T08:22:49;20.40;98.60
8872;DHT22;4472;52.092;9.820;2022-07-23T08:25:37;20.50;97.50
8872;DHT22;4472;52.092;9.820;2022-07-23T08:28:25;20.50;97.60
8872;DHT22;4472;52.092;9.820;2022-07-23T08:31:12;20.60;97.20
8872;DHT22;4472;52.092;9.820;2022-07-23T08:34:01;20.50;97.50
8872;DHT22;4472;52.092;9.820;2022-07-23T08:36:48;20.50;97.50
8872;DHT22;4472;52.092;9.820;2022-07-23T08:39:37;20.50;96.90
8872;DHT22;4472;52.092;9.820;2022-07-23T08:42:25;20.50;97.10
8872;DHT22;4472;52.092;9.820;2022-07-23T08:45:17;20.50;96.90
8872;DHT22;4472;52.092;9.820;2022-07-23T08:48:07;20.70;97.90
8872;DHT22;4472;52.092;9.820;2022-07-23T08:50:56;20.90;97.00
8872;DHT22;4472;52.092;9.820;2022-07-23T08:53:44;21.80;97.50
8872;DHT22;4472;52.092;9.820;2022-07-23T08:56:35;21.40;96.30
8872;DHT22;4472;52.092;9.820;2022-07-23T08:59:22;21.40;95.80
8872;DHT22;4472;52.092;9.820;2022-07-23T09:02:09;21.50;96.20
8872;DHT22;4472;52.092;9.820;2022-07-23T09:04:56;21.40;96.00
8872;DHT22;4472;52.092;9.820;2022-07-23T09:08:09;21.40;95.30
8872;DHT22;4472;52.092;9.820;2022-07-23T09:10:58;21.40;95.30
8872;DHT22;4472;52.092;9.820;2022-07-23T09:13:50;21.20;95.70
8872;DHT22;4472;52.092;9.820;2022-07-23T09:16:38;21.60;96.40
8872;DHT22;4472;52.092;9.820;2022-07-23T09:19:27;21.80;95.30
8872;DHT22;4472;52.092;9.820;2022-07-23T09:22:22;21.80;95.30
8872;DHT22;4472;52.092;9.820;2022-07-23T09:25:12;22.00;94.90
8872;DHT22;4472;52.092;9.820;2022-07-23T09:28:00;22.00;94.70
8872;DHT22;4472;52.092;9.820;2022-07-23T09:30:51;21.90;94.80
8872;DHT22;4472;52.092;9.820;2022-07-23T09:33:38;21.90;94.80
8872;DHT22;4472;52.092;9.820;2022-07-23T09:36:29;21.90;95.10
8872;DHT22;4472;52.092;9.820;2022-07-23T09:39:24;22.00;95.70
8872;DHT22;4472;52.092;9.820;2022-07-23T09:42:16;22.10;96.20
8872;DHT22;4472;52.092;9.820;2022-07-23T09:45:10;22.20;94.70
8872;DHT22;4472;52.092;9.820;2022-07-23T09:48:12;22.40;94.50
8872;DHT22;4472;52.092;9.820;2022-07-23T09:51:02;22.50;94.30
8872;DHT22;4472;52.092;9.820;2022-07-23T09:53:51;22.50;94.00
8872;DHT22;4472;52.092;9.820;2022-07-23T09:56:39;22.50;93.80
8872;DHT22;4472;52.092;9.820;2022-07-23T09:59:29;22.50;94.10
8872;DHT22;4472;52.092;9.820;2022-07-23T10:02:16;22.60;94.10
8872;DHT22;4472;52.092;9.820;2022-07-23T10:05:06;22.50;93.00
8872;DHT22;4472;52.092;9.820;2022-07-23T10:07:54;22.60;93.50
8872;DHT22;4472;52.092;9.820;2022-07-23T10:10:42;22.80;93.80
8872;DHT22;4472;52.092;9.820;2022-07-23T10:13:30;23.00;93.20
8872;DHT22;4472;52.092;9.820;2022-07-23T10:16:50;23.00;92.20
8872;DHT22;4472;52.092;9.820;2022-07-23T10:20:18;23.20;92.70
8872;DHT22;4472;52.092;9.820;2022-07-23T10:31:31;24.40;92.40
8872;DHT22;4472;52.092;9.820;2022-07-23T10:34:38;24.30;92.80
8872;DHT22;4472;52.092;9.820;2022-07-23T10:37:32;23.30;91.50
8872;DHT22;4472;52.092;9.820;2022-07-23T10:40:23;23.50;91.70
8872;DHT22;4472;52.092;9.820;2022-07-23T10:43:16;23.70;91.10
8872;DHT22;4472;52.092;9.820;2022-07-23T10:46:24;23.70;90.80
8872;DHT22;4472;52.092;9.820;2022-07-23T10:49:23;23.70;90.50
8872;DHT22;4472;52.092;9.820;2022-07-23T10:52:23;23.80;90.30
8872;DHT22;4472;52.092;9.820;2022-07-23T10:55:43;23.70;88.80
8872;DHT22;4472;52.092;9.820;2022-07-23T10:58:47;23.60;89.80
8872;DHT22;4472;52.092;9.820;2022-07-23T11:01:36;23.70;89.80
8872;DHT22;4472;52.092;9.820;2022-07-23T11:04:48;23.80;90.20
8872;DHT22;4472;52.092;9.820;2022-07-23T11:07:36;23.90;89.80
8872;DHT22;4472;52.092;9.820;2022-07-23T11:10:32;24.00;90.10
8872;DHT22;4472;52.092;9.820;2022-07-23T11:13:29;24.00;89.00
8872;DHT22;4472;52.092;9.820;2022-07-23T11:16:20;24.10;87.80
8872;DHT22;4472;52.092;9.820;2022-07-23T11:19:08;24.00;87.80
8872;DHT22;4472;52.092;9.820;2022-07-23T11:21:55;23.80;87.10
8872;DHT22;4472;52.092;9.820;2022-07-23T11:24:50;23.70;88.00
8872;DHT22;4472;52.092;9.820;2022-07-23T11:27:39;23.90;89.10
8872;DHT22;4472;52.092;9.820;2022-07-23T11:30:40;23.90;89.60
8872;DHT22;4472;52.092;9.820;2022-07-23T11:33:27;23.90;88.90
8872;DHT22;4472;52.092;9.820;2022-07-23T11:36:18;23.80;87.40
8872;DHT22;4472;52.092;9.820;2022-07-23T11:39:09;23.80;89.20
8872;DHT22;4472;52.092;9.820;2022-07-23T11:41:57;23.80;88.70
8872;DHT22;4472;52.092;9.820;2022-07-23T11:44:47;23.80;88.50
8872;DHT22;4472;52.092;9.820;2022-07-23T11:47:36;24.00;88.80
8872;DHT22;4472;52.092;9.820;2022-07-23T11:50:24;24.20;88.50
8872;DHT22;4472;52.092;9.820;2022-07-23T11:53:12;24.30;87.00
8872;DHT22;4472;52.092;9.820;2022-07-23T11:56:04;24.30;87.60
8872;DHT22;4472;52.092;9.820;2022-07-23T11:58:54;24.40;87.00
8872;DHT22;4472;52.092;9.820;2022-07-23T12:01:56;24.70;87.80
8872;DHT22;4472;52.092;9.820;2022-07-23T12:04:47;24.90;85.80
8872;DHT22;4472;52.092;9.820;2022-07-23T12:07:39;25.00;85.00
8872;DHT22;4472;52.092;9.820;2022-07-23T12:10:32;24.90;85.90
8872;DHT22;4472;52.092;9.820;2022-07-23T12:13:21;25.00;85.30
8872;DHT22;4472;52.092;9.820;2022-07-23T12:16:09;25.20;85.40
8872;DHT22;4472;52.092;9.820;2022-07-23T12:18:59;25.10;82.70
8872;DHT22;4472;52.092;9.820;2022-07-23T12:21:48;24.80;85.40
8872;DHT22;4472;52.092;9.820;2022-07-23T12:24:56;25.20;84.20
8872;DHT22;4472;52.092;9.820;2022-07-23T12:27:44;25.20;82.00
8872;DHT22;4472;52.092;9.820;2022-07-23T12:30:33;25.20;83.80
8872;DHT22;4472;52.092;9.820;2022-07-23T12:33:25;25.20;83.10
8872;DHT22;4472;52.092;9.820;2022-07-23T12:36:12;25.20;82.20
8872;DHT22;4472;52.092;9.820;2022-07-23T12:39:01;25.20;82.50
8872;DHT22;4472;52.092;9.820;2022-07-23T12:41:52;25.20;83.00
8872;DHT22;4472;52.092;9.820;2022-07-23T12:44:39;25.30;82.20
8872;DHT22;4472;52.092;9.820;2022-07-23T12:47:26;25.30;82.10
8872;DHT22;4472;52.092;9.820;2022-07-23T12:50:35;25.20;81.30
8872;DHT22;4472;52.092;9.820;2022-07-23T12:53:24;25.30;82.20
8872;DHT22;4472;52.092;9.820;2022-07-23T12:56:14;25.40;83.10
8872;DHT22;4472;52.092;9.820;2022-07-23T12:59:07;25.40;82.30
8872;DHT22;4472;52.092;9.820;2022-07-23T13:01:57;25.40;81.40
8872;DHT22;4472;52.092;9.820;2022-07-23T13:04:44;25.40;81.20
8872;DHT22;4472;52.092;9.820;2022-07-23T13:07:35;25.50;81.30
8872;DHT22;4472;52.092;9.820;2022-07-23T13:10:22;25.50;80.60
8872;DHT22;4472;52.092;9.820;2022-07-23T13:13:13;25.60;81.30
8872;DHT22;4472;52.092;9.820;2022-07-23T13:16:00;25.50;80.40
8872;DHT22;4472;52.092;9.820;2022-07-23T13:18:48;25.50;80.60
8872;DHT22;4472;52.092;9.820;2022-07-23T13:21:37;25.50;79.50
8872;DHT22;4472;52.092;9.820;2022-07-23T13:24:26;25.50;81.30
8872;DHT22;4472;52.092;9.820;2022-07-23T13:27:13;25.40;79.80
8872;DHT22;4472;52.092;9.820;2022-07-23T13:30:02;25.40;78.60
8872;DHT22;4472;52.092;9.820;2022-07-23T13:32:50;25.50;79.60
8872;DHT22;4472;52.092;9.820;2022-07-23T13:35:37;25.60;78.90
8872;DHT22;4472;52.092;9.820;2022-07-23T13:38:25;25.60;79.70
8872;DHT22;4472;52.092;9.820;2022-07-23T13:41:12;25.60;78.50
8872;DHT22;4472;52.092;9.820;2022-07-23T13:44:02;25.60;78.50
8872;DHT22;4472;52.092;9.820;2022-07-23T13:46:51;25.60;80.60
8872;DHT22;4472;52.092;9.820;2022-07-23T13:49:38;25.60;79.10
8872;DHT22;4472;52.092;9.820;2022-07-23T13:52:25;25.80;79.10
8872;DHT22;4472;52.092;9.820;2022-07-23T13:55:12;25.80;78.70
8872;DHT22;4472;52.092;9.820;2022-07-23T13:58:00;25.80;78.40
8872;DHT22;4472;52.092;9.820;2022-07-23T14:00:50;26.00;79.00
8872;DHT22;4472;52.092;9.820;2022-07-23T14:03:39;26.20;78.40
8872;DHT22;4472;52.092;9.820;2022-07-23T14:06:26;26.30;76.20
8872;DHT22;4472;52.092;9.820;2022-07-23T14:09:13;26.20;76.10
8872;DHT22;4472;52.092;9.820;2022-07-23T14:12:00;26.30;77.50
8872;DHT22;4472;52.092;9.820;2022-07-23T14:14:48;26.30;75.20
8872;DHT22;4472;52.092;9.820;2022-07-23T14:17:36;26.10;76.40
8872;DHT22;4472;52.092;9.820;2022-07-23T14:20:25;25.90;77.60
8872;DHT22;4472;52.092;9.820;2022-07-23T14:23:12;25.80;76.90
8872;DHT22;4472;52.092;9.820;2022-07-23T14:25:59;25.60;76.70
8872;DHT22;4472;52.092;9.820;2022-07-23T14:28:47;25.40;78.00
8872;DHT22;4472;52.092;9.820;2022-07-23T14:31:34;25.40;78.70
8872;DHT22;4472;52.092;9.820;2022-07-23T14:42:22;25.80;80.00
8872;DHT22;4472;52.092;9.820;2022-07-23T14:46:15;24.10;77.30
8872;DHT22;4472;52.092;9.820;2022-07-23T14:49:59;24.10;77.70
8872;DHT22;4472;52.092;9.820;2022-07-23T14:52:49;25.20;82.10
8872;DHT22;4472;52.092;9.820;2022-07-23T14:55:36;24.60;80.50
8872;DHT22;4472;52.092;9.820;2022-07-23T14:58:25;24.50;79.50
8872;DHT22;4472;52.092;9.820;2022-07-23T15:01:12;24.60;79.30
8872;DHT22;4472;52.092;9.820;2022-07-23T15:03:59;24.60;81.10
8872;DHT22;4472;52.092;9.820;2022-07-23T15:06:47;24.60;79.30
8872;DHT22;4472;52.092;9.820;2022-07-23T15:09:37;24.40;79.60
8872;DHT22;4472;52.092;9.820;2022-07-23T15:12:24;24.40;79.80
8872;DHT22;4472;52.092;9.820;2022-07-23T15:15:13;24.50;79.40
8872;DHT22;4472;52.092;9.820;2022-07-23T15:18:00;24.70;80.00
8872;DHT22;4472;52.092;9.820;2022-07-23T15:20:47;24.90;79.80
8872;DHT22;4472;52.092;9.820;2022-07-23T15:23:35;25.10;80.10
8872;DHT22;4472;52.092;9.820;2022-07-23T15:26:26;25.20;79.90
8872;DHT22;4472;52.092;9.820;2022-07-23T15:29:13;25.30;79.60
8872;DHT22;4472;52.092;9.820;2022-07-23T15:32:02;25.40;78.80
8872;DHT22;4472;52.092;9.820;2022-07-23T15:34:49;25.40;78.00
8872;DHT22;4472;52.092;9.820;2022-07-23T15:37:36;25.40;77.60
8872;DHT22;4472;52.092;9.820;2022-07-23T15:40:23;25.30;76.40
8872;DHT22;4472;52.092;9.820;2022-07-23T15:43:12;25.20;77.30
8872;DHT22;4472;52.092;9.820;2022-07-23T15:45:59;25.20;78.00
8872;DHT22;4472;52.092;9.820;2022-07-23T15:48:48;25.00;76.10
8872;DHT22;4472;52.092;9.820;2022-07-23T15:51:35;24.80;76.10
8872;DHT22;4472;52.092;9.820;2022-07-23T15:54:22;24.60;77.10
8872;DHT22;4472;52.092;9.820;2022-07-23T15:57:09;24.60;78.50
8872;DHT22;4472;52.092;9.820;2022-07-23T15:59:56;24.50;78.80
8872;DHT22;4472;52.092;9.820;2022-07-23T16:02:44;24.60;77.50
8872;DHT22;4472;52.092;9.820;2022-07-23T16:05:32;24.60;77.60
8872;DHT22;4472;52.092;9.820;2022-07-23T16:08:20;24.60;78.00
8872;DHT22;4472;52.092;9.820;2022-07-23T16:11:07;24.60;77.40
8872;DHT22;4472;52.092;9.820;2022-07-23T16:13:55;24.60;77.50
8872;DHT22;4472;52.092;9.820;2022-07-23T16:16:42;24.60;77.10
8872;DHT22;4472;52.092;9.820;2022-07-23T16:19:30;24.50;77.80
8872;DHT22;4472;52.092;9.820;2022-07-23T16:22:18;24.60;77.80
8872;DHT22;4472;52.092;9.820;2022-07-23T16:25:07;24.50;76.00
8872;DHT22;4472;52.092;9.820;2022-07-23T16:27:54;24.50;76.70
8872;DHT22;4472;52.092;9.820;2022-07-23T16:30:42;24.40;76.80
8872;DHT22;4472;52.092;9.820;2022-07-23T16:33:29;24.40;76.10
8872;DHT22;4472;52.092;9.820;2022-07-23T16:36:16;24.30;77.70
8872;DHT22;4472;52.092;9.820;2022-07-23T16:39:06;24.40;77.60
8872;DHT22;4472;52.092;9.820;2022-07-23T16:41:53;24.30;75.90
8872;DHT22;4472;52.092;9.820;2022-07-23T16:44:40;24.30;77.80
8872;DHT22;4472;52.092;9.820;2022-07-23T16:47:28;24.20;76.70
8872;DHT22;4472;52.092;9.820;2022-07-23T16:50:15;24.10;76.20
8872;DHT22;4472;52.092;9.820;2022-07-23T16:53:02;24.10;77.10
8872;DHT22;4472;52.092;9.820;2022-07-23T16:55:51;24.10;77.20
8872;DHT22;4472;52.092;9.820;2022-07-23T16:58:38;24.00;77.60
8872;DHT22;4472;52.092;9.820;2022-07-23T17:01:25;24.00;76.70
8872;DHT22;4472;52.092;9.820;2022-07-23T17:04:12;24.00;77.20
8872;DHT22;4472;52.092;9.820;2022-07-23T17:06:59;23.90;77.30
8872;DHT22;4472;52.092;9.820;2022-07-23T17:09:50;23.90;77.80
8872;DHT22;4472;52.092;9.820;2022-07-23T17:12:39;23.90;77.60
8872;DHT22;4472;52.092;9.820;2022-07-23T17:15:26;23.80;78.00
8872;DHT22;4472;52.092;9.820;2022-07-23T17:18:13;23.80;78.50
8872;DHT22;4472;52.092;9.820;2022-07-23T17:21:01;23.70;78.40
8872;DHT22;4472;52.092;9.820;2022-07-23T17:23:49;23.70;78.20
8872;DHT22;4472;52.092;9.820;2022-07-23T17:26:36;23.70;79.30
8872;DHT22;4472;52.092;9.820;2022-07-23T17:29:25;23.80;79.20
8872;DHT22;4472;52.092;9.820;2022-07-23T17:32:12;23.70;78.80
8872;DHT22;4472;52.092;9.820;2022-07-23T17:35:00;23.70;78.70
8872;DHT22;4472;52.092;9.820;2022-07-23T17:37:47;23.60;79.40
8872;DHT22;4472;52.092;9.820;2022-07-23T17:40:34;23.60;78.80
8872;DHT22;4472;52.092;9.820;2022-07-23T17:43:21;23.50;79.20
8872;DHT22;4472;52.092;9.820;2022-07-23T17:46:10;23.40;78.50
8872;DHT22;4472;52.092;9.820;2022-07-23T17:48:57;23.30;78.60
8872;DHT22;4472;52.092;9.820;2022-07-23T17:51:45;23.20;79.30
8872;DHT22;4472;52.092;9.820;2022-07-23T17:54:33;23.00;79.30
8872;DHT22;4472;52.092;9.820;2022-07-23T17:57:20;23.00;80.20
8872;DHT22;4472;52.092;9.820;2022-07-23T18:00:10;23.00;80.50
8872;DHT22;4472;52.092;9.820;2022-07-23T18:02:59;23.00;80.30
8872;DHT22;4472;52.092;9.820;2022-07-23T18:05:47;23.00;81.00
8872;DHT22;4472;52.092;9.820;2022-07-23T18:08:34;23.00;80.50
8872;DHT22;4472;52.092;9.820;2022-07-23T18:11:21;22.80;80.20
8872;DHT22;4472;52.092;9.820;2022-07-23T18:14:11;22.70;80.90
8872;DHT22;4472;52.092;9.820;2022-07-23T18:16:58;22.60;81.30
8872;DHT22;4472;52.092;9.820;2022-07-23T18:19:47;22.50;81.80
8872;DHT22;4472;52.092;9.820;2022-07-23T18:22:34;22.50;82.70
8872;DHT22;4472;52.092;9.820;2022-07-23T18:25:21;22.30;81.80
8872;DHT22;4472;52.092;9.820;2022-07-23T18:28:09;22.40;82.50
8872;DHT22;4472;52.092;9.820;2022-07-23T18:30:56;22.30;82.70
8872;DHT22;4472;52.092;9.820;2022-07-23T18:33:44;22.30;82.70
8872;DHT22;4472;52.092;9.820;2022-07-23T18:36:32;22.20;83.10
8872;DHT22;4472;52.092;9.820;2022-07-23T18:39:19;22.10;83.40
8872;DHT22;4472;52.092;9.820;2022-07-23T18:42:07;22.00;83.60